Terminal Aerodrome Forecast
Issued by NWS Cleveland, OH

Home | Current Version | Previous Version | Graphics & Text | Print | Product List | Glossary On
Versions: 1 2 3 4 5 6 7 8 9 10 11 12 13 14 15 16 17 18 19
241
FTUS41 KCLE 041534 AAA
TAFERI
TAF AMD
KERI 041534Z 0416/0512 25013KT P6SM -SHSN BKN015 OVC025
     FM050200 29005KT P6SM VCSH OVC035=

USA.gov is the U.S. government's official web portal to all federal, state and local government web resources and services.